sensor_id;sensor_type;location;lat;lon;timestamp;temperature;humidity
26254;DHT22;53339;51.378;0.094;2022-08-05T00:01:25;19.20;42.40
26254;DHT22;53339;51.378;0.094;2022-08-05T00:03:54;19.10;42.50
26254;DHT22;53339;51.378;0.094;2022-08-05T00:06:23;19.10;42.50
26254;DHT22;53339;51.378;0.094;2022-08-05T00:08:59;19.10;42.50
26254;DHT22;53339;51.378;0.094;2022-08-05T00:11:27;19.00;42.50
26254;DHT22;53339;51.378;0.094;2022-08-05T00:13:56;19.00;42.70
26254;DHT22;53339;51.378;0.094;2022-08-05T00:16:24;19.00;42.70
26254;DHT22;53339;51.378;0.094;2022-08-05T00:19:03;18.90;42.80
26254;DHT22;53339;51.378;0.094;2022-08-05T00:21:30;18.90;43.00
26254;DHT22;53339;51.378;0.094;2022-08-05T00:24:02;18.90;43.00
26254;DHT22;53339;51.378;0.094;2022-08-05T00:26:36;18.80;43.10
26254;DHT22;53339;51.378;0.094;2022-08-05T00:29:04;18.80;43.20
26254;DHT22;53339;51.378;0.094;2022-08-05T00:31:32;18.70;43.20
26254;DHT22;53339;51.378;0.094;2022-08-05T00:34:19;18.70;43.30
26254;DHT22;53339;51.378;0.094;2022-08-05T00:37:07;18.60;43.40
26254;DHT22;53339;51.378;0.094;2022-08-05T00:39:40;18.60;43.50
26254;DHT22;53339;51.378;0.094;2022-08-05T00:42:35;18.50;43.50
26254;DHT22;53339;51.378;0.094;2022-08-05T00:45:05;18.40;43.60
26254;DHT22;53339;51.378;0.094;2022-08-05T00:47:35;18.40;43.70
26254;DHT22;53339;51.378;0.094;2022-08-05T00:50:20;18.40;43.80
26254;DHT22;53339;51.378;0.094;2022-08-05T00:52:47;18.30;43.90
26254;DHT22;53339;51.378;0.094;2022-08-05T00:55:15;18.30;44.10
26254;DHT22;53339;51.378;0.094;2022-08-05T00:57:42;18.30;44.10
26254;DHT22;53339;51.378;0.094;2022-08-05T01:00:21;18.30;44.30
26254;DHT22;53339;51.378;0.094;2022-08-05T01:02:49;18.30;44.30
26254;DHT22;53339;51.378;0.094;2022-08-05T01:05:16;18.30;44.30
26254;DHT22;53339;51.378;0.094;2022-08-05T01:07:44;18.30;44.30
26254;DHT22;53339;51.378;0.094;2022-08-05T01:10:42;18.20;44.30
26254;DHT22;53339;51.378;0.094;2022-08-05T01:16:34;18.20;44.20
26254;DHT22;53339;51.378;0.094;2022-08-05T01:27:06;18.00;44.30
26254;DHT22;53339;51.378;0.094;2022-08-05T01:29:45;18.00;44.30
26254;DHT22;53339;51.378;0.094;2022-08-05T01:32:17;17.90;44.30
26254;DHT22;53339;51.378;0.094;2022-08-05T01:35:12;17.90;44.20
26254;DHT22;53339;51.378;0.094;2022-08-05T01:38:01;17.90;44.30
26254;DHT22;53339;51.378;0.094;2022-08-05T01:40:31;17.80;44.40
26254;DHT22;53339;51.378;0.094;2022-08-05T01:43:01;17.70;44.40
26254;DHT22;53339;51.378;0.094;2022-08-05T01:45:30;17.70;44.40
26254;DHT22;53339;51.378;0.094;2022-08-05T01:48:01;17.70;44.40
26254;DHT22;53339;51.378;0.094;2022-08-05T01:50:33;17.70;44.40
26254;DHT22;53339;51.378;0.094;2022-08-05T01:53:04;17.70;44.50
26254;DHT22;53339;51.378;0.094;2022-08-05T01:55:34;17.70;44.60
26254;DHT22;53339;51.378;0.094;2022-08-05T01:58:04;17.60;44.80
26254;DHT22;53339;51.378;0.094;2022-08-05T02:00:44;17.60;44.80
26254;DHT22;53339;51.378;0.094;2022-08-05T02:05:44;17.60;44.80
26254;DHT22;53339;51.378;0.094;2022-08-05T02:08:12;17.50;45.00
26254;DHT22;53339;51.378;0.094;2022-08-05T02:10:47;17.50;45.40
26254;DHT22;53339;51.378;0.094;2022-08-05T02:13:59;17.40;45.40
26254;DHT22;53339;51.378;0.094;2022-08-05T02:16:33;17.40;45.50
26254;DHT22;53339;51.378;0.094;2022-08-05T02:21:38;17.40;45.90
26254;DHT22;53339;51.378;0.094;2022-08-05T02:24:13;17.30;46.20
26254;DHT22;53339;51.378;0.094;2022-08-05T02:26:50;17.30;46.30
26254;DHT22;53339;51.378;0.094;2022-08-05T02:29:23;17.30;46.40
26254;DHT22;53339;51.378;0.094;2022-08-05T02:31:55;17.20;46.40
26254;DHT22;53339;51.378;0.094;2022-08-05T02:34:27;17.20;46.50
26254;DHT22;53339;51.378;0.094;2022-08-05T02:36:58;17.20;46.50
26254;DHT22;53339;51.378;0.094;2022-08-05T02:39:29;17.20;46.70
26254;DHT22;53339;51.378;0.094;2022-08-05T02:42:01;17.20;46.80
26254;DHT22;53339;51.378;0.094;2022-08-05T02:44:33;17.20;46.80
26254;DHT22;53339;51.378;0.094;2022-08-05T02:47:04;17.10;47.20
26254;DHT22;53339;51.378;0.094;2022-08-05T02:49:37;17.10;47.20
26254;DHT22;53339;51.378;0.094;2022-08-05T02:52:17;17.20;47.30
26254;DHT22;53339;51.378;0.094;2022-08-05T02:54:53;17.10;47.60
26254;DHT22;53339;51.378;0.094;2022-08-05T02:57:21;17.10;47.50
26254;DHT22;53339;51.378;0.094;2022-08-05T03:00:11;17.10;47.70
26254;DHT22;53339;51.378;0.094;2022-08-05T03:02:41;17.10;47.80
26254;DHT22;53339;51.378;0.094;2022-08-05T03:05:11;17.10;47.90
26254;DHT22;53339;51.378;0.094;2022-08-05T03:07:40;17.00;48.50
26254;DHT22;53339;51.378;0.094;2022-08-05T03:10:25;17.00;48.50
26254;DHT22;53339;51.378;0.094;2022-08-05T03:12:53;16.90;48.60
26254;DHT22;53339;51.378;0.094;2022-08-05T03:15:21;16.90;48.70
26254;DHT22;53339;51.378;0.094;2022-08-05T03:17:53;16.80;49.00
26254;DHT22;53339;51.378;0.094;2022-08-05T03:20:22;16.80;48.90
26254;DHT22;53339;51.378;0.094;2022-08-05T03:22:52;16.80;48.80
26254;DHT22;53339;51.378;0.094;2022-08-05T03:25:21;16.70;48.80
26254;DHT22;53339;51.378;0.094;2022-08-05T03:28:06;16.80;48.90
26254;DHT22;53339;51.378;0.094;2022-08-05T03:30:35;16.70;48.70
26254;DHT22;53339;51.378;0.094;2022-08-05T03:33:05;16.70;48.80
26254;DHT22;53339;51.378;0.094;2022-08-05T03:35:33;16.70;48.80
26254;DHT22;53339;51.378;0.094;2022-08-05T03:38:11;16.60;48.70
26254;DHT22;53339;51.378;0.094;2022-08-05T03:40:45;16.60;48.60
26254;DHT22;53339;51.378;0.094;2022-08-05T03:43:14;16.60;48.60
26254;DHT22;53339;51.378;0.094;2022-08-05T03:46:03;16.60;48.50
26254;DHT22;53339;51.378;0.094;2022-08-05T03:48:31;16.60;48.50
26254;DHT22;53339;51.378;0.094;2022-08-05T03:51:23;16.60;48.50
26254;DHT22;53339;51.378;0.094;2022-08-05T03:57:13;16.50;48.40
26254;DHT22;53339;51.378;0.094;2022-08-05T03:59:52;16.60;48.40
26254;DHT22;53339;51.378;0.094;2022-08-05T04:02:25;16.50;48.70
26254;DHT22;53339;51.378;0.094;2022-08-05T04:05:06;16.50;48.80
26254;DHT22;53339;51.378;0.094;2022-08-05T04:07:38;16.50;49.00
26254;DHT22;53339;51.378;0.094;2022-08-05T04:10:19;16.40;49.30
26254;DHT22;53339;51.378;0.094;2022-08-05T04:12:47;16.40;49.50
26254;DHT22;53339;51.378;0.094;2022-08-05T04:15:15;16.40;49.50
26254;DHT22;53339;51.378;0.094;2022-08-05T04:17:43;16.40;49.60
26254;DHT22;53339;51.378;0.094;2022-08-05T04:20:23;16.40;49.80
26254;DHT22;53339;51.378;0.094;2022-08-05T04:22:50;16.30;49.80
26254;DHT22;53339;51.378;0.094;2022-08-05T04:25:18;16.30;50.10
26254;DHT22;53339;51.378;0.094;2022-08-05T04:27:45;16.20;50.60
26254;DHT22;53339;51.378;0.094;2022-08-05T04:30:23;16.20;50.70
26254;DHT22;53339;51.378;0.094;2022-08-05T04:32:51;16.20;50.60
26254;DHT22;53339;51.378;0.094;2022-08-05T04:35:18;16.10;50.80
26254;DHT22;53339;51.378;0.094;2022-08-05T04:37:46;16.10;51.20
26254;DHT22;53339;51.378;0.094;2022-08-05T04:40:31;16.10;51.50
26254;DHT22;53339;51.378;0.094;2022-08-05T04:42:59;16.00;51.60
26254;DHT22;53339;51.378;0.094;2022-08-05T04:45:26;15.90;51.50
26254;DHT22;53339;51.378;0.094;2022-08-05T04:48:11;15.80;51.70
26254;DHT22;53339;51.378;0.094;2022-08-05T04:50:45;15.80;51.70
26254;DHT22;53339;51.378;0.094;2022-08-05T04:53:28;15.70;51.60
26254;DHT22;53339;51.378;0.094;2022-08-05T04:55:55;15.70;51.50
26254;DHT22;53339;51.378;0.094;2022-08-05T04:58:42;15.70;51.40
26254;DHT22;53339;51.378;0.094;2022-08-05T05:01:09;15.70;51.30
26254;DHT22;53339;51.378;0.094;2022-08-05T05:03:37;15.70;51.50
26254;DHT22;53339;51.378;0.094;2022-08-05T05:06:12;15.70;51.70
26254;DHT22;53339;51.378;0.094;2022-08-05T05:08:59;15.60;51.90
26254;DHT22;53339;51.378;0.094;2022-08-05T05:11:27;15.50;52.30
26254;DHT22;53339;51.378;0.094;2022-08-05T05:13:59;15.40;52.60
26254;DHT22;53339;51.378;0.094;2022-08-05T05:16:27;15.40;53.20
26254;DHT22;53339;51.378;0.094;2022-08-05T05:18:56;15.40;53.10
26254;DHT22;53339;51.378;0.094;2022-08-05T05:21:44;15.40;53.20
26254;DHT22;53339;51.378;0.094;2022-08-05T05:24:12;15.40;53.20
26254;DHT22;53339;51.378;0.094;2022-08-05T05:26:40;15.40;53.20
26254;DHT22;53339;51.378;0.094;2022-08-05T05:29:08;15.40;53.40
26254;DHT22;53339;51.378;0.094;2022-08-05T05:31:36;15.40;53.40
26254;DHT22;53339;51.378;0.094;2022-08-05T05:34:02;15.40;53.30
26254;DHT22;53339;51.378;0.094;2022-08-05T05:36:30;15.40;53.10
26254;DHT22;53339;51.378;0.094;2022-08-05T05:38:58;15.40;53.00
26254;DHT22;53339;51.378;0.094;2022-08-05T05:41:25;15.40;52.80
26254;DHT22;53339;51.378;0.094;2022-08-05T05:44:07;15.50;52.60
26254;DHT22;53339;51.378;0.094;2022-08-05T05:46:53;15.60;52.40
26254;DHT22;53339;51.378;0.094;2022-08-05T05:49:20;15.60;52.10
26254;DHT22;53339;51.378;0.094;2022-08-05T05:51:49;15.70;52.10
26254;DHT22;53339;51.378;0.094;2022-08-05T05:54:17;15.70;52.30
26254;DHT22;53339;51.378;0.094;2022-08-05T05:56:44;15.70;52.10
26254;DHT22;53339;51.378;0.094;2022-08-05T05:59:12;15.70;51.90
26254;DHT22;53339;51.378;0.094;2022-08-05T06:01:40;15.90;51.80
26254;DHT22;53339;51.378;0.094;2022-08-05T06:04:20;15.90;51.70
26254;DHT22;53339;51.378;0.094;2022-08-05T06:06:48;15.90;51.70
26254;DHT22;53339;51.378;0.094;2022-08-05T06:09:15;15.90;51.70
26254;DHT22;53339;51.378;0.094;2022-08-05T06:11:52;15.90;51.70
26254;DHT22;53339;51.378;0.094;2022-08-05T06:14:26;15.90;51.80
26254;DHT22;53339;51.378;0.094;2022-08-05T06:16:55;15.90;51.80
26254;DHT22;53339;51.378;0.094;2022-08-05T06:19:23;16.00;52.00
26254;DHT22;53339;51.378;0.094;2022-08-05T06:21:52;15.90;51.90
26254;DHT22;53339;51.378;0.094;2022-08-05T06:24:20;15.90;51.80
26254;DHT22;53339;51.378;0.094;2022-08-05T06:26:48;16.00;51.70
26254;DHT22;53339;51.378;0.094;2022-08-05T06:29:19;16.00;51.50
26254;DHT22;53339;51.378;0.094;2022-08-05T06:31:52;16.10;51.50
26254;DHT22;53339;51.378;0.094;2022-08-05T06:34:20;16.10;51.50
26254;DHT22;53339;51.378;0.094;2022-08-05T06:36:47;16.20;51.40
26254;DHT22;53339;51.378;0.094;2022-08-05T06:39:24;16.20;51.30
26254;DHT22;53339;51.378;0.094;2022-08-05T06:42:00;16.30;51.20
26254;DHT22;53339;51.378;0.094;2022-08-05T06:44:30;16.40;51.10
26254;DHT22;53339;51.378;0.094;2022-08-05T06:46:58;16.40;50.70
26254;DHT22;53339;51.378;0.094;2022-08-05T06:49:25;16.40;50.50
26254;DHT22;53339;51.378;0.094;2022-08-05T06:52:13;16.40;50.30
26254;DHT22;53339;51.378;0.094;2022-08-05T06:55:00;16.40;50.20
26254;DHT22;53339;51.378;0.094;2022-08-05T06:57:28;16.40;50.00
26254;DHT22;53339;51.378;0.094;2022-08-05T07:00:18;16.40;50.10
26254;DHT22;53339;51.378;0.094;2022-08-05T07:02:48;16.40;50.20
26254;DHT22;53339;51.378;0.094;2022-08-05T07:05:20;16.50;50.10
26254;DHT22;53339;51.378;0.094;2022-08-05T07:07:51;16.50;49.80
26254;DHT22;53339;51.378;0.094;2022-08-05T07:10:19;16.60;49.60
26254;DHT22;53339;51.378;0.094;2022-08-05T07:12:46;16.60;49.40
26254;DHT22;53339;51.378;0.094;2022-08-05T07:15:32;16.70;49.10
26254;DHT22;53339;51.378;0.094;2022-08-05T07:18:27;16.70;48.90
26254;DHT22;53339;51.378;0.094;2022-08-05T07:20:56;16.70;48.70
26254;DHT22;53339;51.378;0.094;2022-08-05T07:23:24;16.80;48.50
26254;DHT22;53339;51.378;0.094;2022-08-05T07:25:52;16.80;48.20
26254;DHT22;53339;51.378;0.094;2022-08-05T07:28:22;16.90;48.10
26254;DHT22;53339;51.378;0.094;2022-08-05T07:30:51;17.00;47.80
26254;DHT22;53339;51.378;0.094;2022-08-05T07:33:19;17.00;47.60
26254;DHT22;53339;51.378;0.094;2022-08-05T07:35:48;17.10;47.60
26254;DHT22;53339;51.378;0.094;2022-08-05T07:38:23;17.20;47.60
26254;DHT22;53339;51.378;0.094;2022-08-05T07:40:52;17.30;47.80
26254;DHT22;53339;51.378;0.094;2022-08-05T07:43:22;17.40;47.70
26254;DHT22;53339;51.378;0.094;2022-08-05T07:45:49;17.50;47.30
26254;DHT22;53339;51.378;0.094;2022-08-05T07:48:24;17.60;47.10
26254;DHT22;53339;51.378;0.094;2022-08-05T07:51:12;17.60;46.70
26254;DHT22;53339;51.378;0.094;2022-08-05T07:53:50;17.70;46.70
26254;DHT22;53339;51.378;0.094;2022-08-05T07:56:18;17.70;46.80
26254;DHT22;53339;51.378;0.094;2022-08-05T07:59:05;17.80;46.30
26254;DHT22;53339;51.378;0.094;2022-08-05T08:01:33;17.90;46.30
26254;DHT22;53339;51.378;0.094;2022-08-05T08:04:01;17.90;46.30
26254;DHT22;53339;51.378;0.094;2022-08-05T08:06:29;18.00;46.30
26254;DHT22;53339;51.378;0.094;2022-08-05T08:08:57;18.00;46.10
26254;DHT22;53339;51.378;0.094;2022-08-05T08:11:24;18.10;45.80
26254;DHT22;53339;51.378;0.094;2022-08-05T08:13:54;18.20;45.40
26254;DHT22;53339;51.378;0.094;2022-08-05T08:16:27;18.20;45.40
26254;DHT22;53339;51.378;0.094;2022-08-05T08:19:02;18.20;45.40
26254;DHT22;53339;51.378;0.094;2022-08-05T08:21:29;18.20;45.10
26254;DHT22;53339;51.378;0.094;2022-08-05T08:23:57;18.30;45.20
26254;DHT22;53339;51.378;0.094;2022-08-05T08:26:29;18.30;45.10
26254;DHT22;53339;51.378;0.094;2022-08-05T08:28:58;18.40;45.40
26254;DHT22;53339;51.378;0.094;2022-08-05T08:31:28;18.40;45.20
26254;DHT22;53339;51.378;0.094;2022-08-05T08:33:56;18.50;44.90
26254;DHT22;53339;51.378;0.094;2022-08-05T08:36:23;18.50;45.00
26254;DHT22;53339;51.378;0.094;2022-08-05T08:39:06;18.50;45.00
26254;DHT22;53339;51.378;0.094;2022-08-05T08:41:41;18.60;44.30
26254;DHT22;53339;51.378;0.094;2022-08-05T08:44:20;18.60;44.00
26254;DHT22;53339;51.378;0.094;2022-08-05T08:47:07;18.60;44.20
26254;DHT22;53339;51.378;0.094;2022-08-05T08:49:54;18.60;44.20
26254;DHT22;53339;51.378;0.094;2022-08-05T08:52:34;18.70;44.10
26254;DHT22;53339;51.378;0.094;2022-08-05T08:55:03;18.70;44.30
26254;DHT22;53339;51.378;0.094;2022-08-05T08:57:33;18.80;43.90
26254;DHT22;53339;51.378;0.094;2022-08-05T09:00:09;18.90;43.80
26254;DHT22;53339;51.378;0.094;2022-08-05T09:02:36;19.00;43.30
26254;DHT22;53339;51.378;0.094;2022-08-05T09:05:04;19.00;43.40
26254;DHT22;53339;51.378;0.094;2022-08-05T09:07:44;19.10;43.30
26254;DHT22;53339;51.378;0.094;2022-08-05T09:10:24;19.10;43.50
26254;DHT22;53339;51.378;0.094;2022-08-05T09:12:54;19.30;43.50
26254;DHT22;53339;51.378;0.094;2022-08-05T09:15:21;19.40;43.40
26254;DHT22;53339;51.378;0.094;2022-08-05T09:17:50;19.50;42.60
26254;DHT22;53339;51.378;0.094;2022-08-05T09:20:19;19.40;42.40
26254;DHT22;53339;51.378;0.094;2022-08-05T09:25:34;19.50;42.40
26254;DHT22;53339;51.378;0.094;2022-08-05T09:28:23;19.50;42.40
26254;DHT22;53339;51.378;0.094;2022-08-05T09:31:10;19.50;42.90
26254;DHT22;53339;51.378;0.094;2022-08-05T09:33:49;19.60;42.60
26254;DHT22;53339;51.378;0.094;2022-08-05T09:36:18;19.70;42.40
26254;DHT22;53339;51.378;0.094;2022-08-05T09:41:27;19.90;41.90
26254;DHT22;53339;51.378;0.094;2022-08-05T09:43:54;20.00;41.10
26254;DHT22;53339;51.378;0.094;2022-08-05T09:46:31;20.10;40.30
26254;DHT22;53339;51.378;0.094;2022-08-05T09:49:00;20.10;40.60
26254;DHT22;53339;51.378;0.094;2022-08-05T09:51:36;20.20;40.30
26254;DHT22;53339;51.378;0.094;2022-08-05T09:54:05;20.20;39.60
26254;DHT22;53339;51.378;0.094;2022-08-05T09:56:38;20.20;39.20
26254;DHT22;53339;51.378;0.094;2022-08-05T09:59:08;20.20;39.20
26254;DHT22;53339;51.378;0.094;2022-08-05T10:01:37;20.30;39.20
26254;DHT22;53339;51.378;0.094;2022-08-05T10:04:13;20.30;39.20
26254;DHT22;53339;51.378;0.094;2022-08-05T10:06:55;20.40;38.40
26254;DHT22;53339;51.378;0.094;2022-08-05T10:09:25;20.40;38.30
26254;DHT22;53339;51.378;0.094;2022-08-05T10:12:06;20.50;38.50
26254;DHT22;53339;51.378;0.094;2022-08-05T10:14:45;20.60;38.30
26254;DHT22;53339;51.378;0.094;2022-08-05T10:17:14;20.70;38.10
26254;DHT22;53339;51.378;0.094;2022-08-05T10:20:02;20.70;38.20
26254;DHT22;53339;51.378;0.094;2022-08-05T10:22:38;20.90;37.70
26254;DHT22;53339;51.378;0.094;2022-08-05T10:25:09;21.10;37.40
26254;DHT22;53339;51.378;0.094;2022-08-05T10:27:37;21.20;37.20
26254;DHT22;53339;51.378;0.094;2022-08-05T10:30:26;21.20;37.20
26254;DHT22;53339;51.378;0.094;2022-08-05T10:33:13;21.30;37.20
26254;DHT22;53339;51.378;0.094;2022-08-05T10:35:41;21.40;36.60
26254;DHT22;53339;51.378;0.094;2022-08-05T10:38:11;21.40;36.50
26254;DHT22;53339;51.378;0.094;2022-08-05T10:45:55;21.60;36.40
26254;DHT22;53339;51.378;0.094;2022-08-05T10:51:20;21.60;35.40
26254;DHT22;53339;51.378;0.094;2022-08-05T10:53:53;21.50;35.30
26254;DHT22;53339;51.378;0.094;2022-08-05T10:56:24;21.40;34.90
26254;DHT22;53339;51.378;0.094;2022-08-05T11:01:34;21.70;35.30
26254;DHT22;53339;51.378;0.094;2022-08-05T11:04:22;21.80;35.00
26254;DHT22;53339;51.378;0.094;2022-08-05T11:15:19;22.20;34.50
26254;DHT22;53339;51.378;0.094;2022-08-05T11:17:49;22.20;34.50
26254;DHT22;53339;51.378;0.094;2022-08-05T11:20:37;22.20;34.80
26254;DHT22;53339;51.378;0.094;2022-08-05T11:29:02;22.10;35.00
26254;DHT22;53339;51.378;0.094;2022-08-05T11:31:33;22.20;34.90
26254;DHT22;53339;51.378;0.094;2022-08-05T11:34:40;22.40;34.70
26254;DHT22;53339;51.378;0.094;2022-08-05T11:44:12;22.70;34.00
26254;DHT22;53339;51.378;0.094;2022-08-05T11:46:50;22.80;33.80
26254;DHT22;53339;51.378;0.094;2022-08-05T11:49:25;23.10;34.00
26254;DHT22;53339;51.378;0.094;2022-08-05T11:51:52;23.40;33.40
26254;DHT22;53339;51.378;0.094;2022-08-05T11:54:25;23.60;32.20
26254;DHT22;53339;51.378;0.094;2022-08-05T11:57:02;23.60;32.40
26254;DHT22;53339;51.378;0.094;2022-08-05T11:59:35;23.60;33.30
26254;DHT22;53339;51.378;0.094;2022-08-05T12:02:07;23.70;33.50
26254;DHT22;53339;51.378;0.094;2022-08-05T12:04:41;23.80;33.50
26254;DHT22;53339;51.378;0.094;2022-08-05T12:07:12;24.20;32.80
26254;DHT22;53339;51.378;0.094;2022-08-05T12:09:47;24.40;32.40
26254;DHT22;53339;51.378;0.094;2022-08-05T12:12:20;24.40;31.80
26254;DHT22;53339;51.378;0.094;2022-08-05T12:14:48;24.20;31.50
26254;DHT22;53339;51.378;0.094;2022-08-05T12:17:16;23.90;30.10
26254;DHT22;53339;51.378;0.094;2022-08-05T12:19:51;23.70;31.10
26254;DHT22;53339;51.378;0.094;2022-08-05T12:22:39;23.80;31.70
26254;DHT22;53339;51.378;0.094;2022-08-05T12:25:07;24.10;31.60
26254;DHT22;53339;51.378;0.094;2022-08-05T12:27:35;24.30;31.60
26254;DHT22;53339;51.378;0.094;2022-08-05T12:30:10;24.50;30.90
26254;DHT22;53339;51.378;0.094;2022-08-05T12:32:46;24.70;29.90
26254;DHT22;53339;51.378;0.094;2022-08-05T12:35:17;24.90;30.10
26254;DHT22;53339;51.378;0.094;2022-08-05T12:37:48;25.20;30.10
26254;DHT22;53339;51.378;0.094;2022-08-05T12:40:16;25.20;30.10
26254;DHT22;53339;51.378;0.094;2022-08-05T12:42:47;25.10;30.20
26254;DHT22;53339;51.378;0.094;2022-08-05T12:45:15;25.00;30.30
26254;DHT22;53339;51.378;0.094;2022-08-05T12:47:42;24.90;30.20
26254;DHT22;53339;51.378;0.094;2022-08-05T12:50:28;24.70;30.30
26254;DHT22;53339;51.378;0.094;2022-08-05T12:52:57;24.40;30.60
26254;DHT22;53339;51.378;0.094;2022-08-05T12:55:28;24.40;30.70
26254;DHT22;53339;51.378;0.094;2022-08-05T12:57:59;24.40;30.90
26254;DHT22;53339;51.378;0.094;2022-08-05T13:00:47;24.30;31.10
26254;DHT22;53339;51.378;0.094;2022-08-05T13:03:38;24.30;30.60
26254;DHT22;53339;51.378;0.094;2022-08-05T13:06:15;24.10;30.80
26254;DHT22;53339;51.378;0.094;2022-08-05T13:08:46;23.90;31.00
26254;DHT22;53339;51.378;0.094;2022-08-05T13:11:16;23.70;31.20
26254;DHT22;53339;51.378;0.094;2022-08-05T13:13:48;23.70;31.60
26254;DHT22;53339;51.378;0.094;2022-08-05T13:16:46;23.90;30.90
26254;DHT22;53339;51.378;0.094;2022-08-05T13:19:15;23.80;30.50
26254;DHT22;53339;51.378;0.094;2022-08-05T13:21:45;23.60;30.90
26254;DHT22;53339;51.378;0.094;2022-08-05T13:24:14;23.40;30.80
26254;DHT22;53339;51.378;0.094;2022-08-05T13:26:54;23.40;30.80
26254;DHT22;53339;51.378;0.094;2022-08-05T13:29:21;23.80;31.00
26254;DHT22;53339;51.378;0.094;2022-08-05T13:32:04;24.70;30.50
26254;DHT22;53339;51.378;0.094;2022-08-05T13:34:31;25.80;29.60
26254;DHT22;53339;51.378;0.094;2022-08-05T13:36:59;26.40;28.30
26254;DHT22;53339;51.378;0.094;2022-08-05T13:39:27;26.70;28.00
26254;DHT22;53339;51.378;0.094;2022-08-05T13:42:15;26.80;27.30
26254;DHT22;53339;51.378;0.094;2022-08-05T13:44:42;26.30;27.60
26254;DHT22;53339;51.378;0.094;2022-08-05T13:47:12;25.70;28.30
26254;DHT22;53339;51.378;0.094;2022-08-05T13:50:02;25.30;28.50
26254;DHT22;53339;51.378;0.094;2022-08-05T13:52:33;24.80;29.10
26254;DHT22;53339;51.378;0.094;2022-08-05T13:55:02;24.40;29.50
26254;DHT22;53339;51.378;0.094;2022-08-05T13:57:34;24.20;29.60
26254;DHT22;53339;51.378;0.094;2022-08-05T14:00:15;24.90;29.30
26254;DHT22;53339;51.378;0.094;2022-08-05T14:02:42;26.20;27.60
26254;DHT22;53339;51.378;0.094;2022-08-05T14:05:10;27.20;27.20
26254;DHT22;53339;51.378;0.094;2022-08-05T14:07:42;28.20;25.90
26254;DHT22;53339;51.378;0.094;2022-08-05T14:10:23;28.70;25.10
26254;DHT22;53339;51.378;0.094;2022-08-05T14:12:55;28.30;25.50
26254;DHT22;53339;51.378;0.094;2022-08-05T14:15:24;27.70;26.10
26254;DHT22;53339;51.378;0.094;2022-08-05T14:18:12;27.40;26.60
26254;DHT22;53339;51.378;0.094;2022-08-05T14:20:41;27.70;26.20
26254;DHT22;53339;51.378;0.094;2022-08-05T14:23:09;27.80;26.10
26254;DHT22;53339;51.378;0.094;2022-08-05T14:25:36;27.60;26.20
26254;DHT22;53339;51.378;0.094;2022-08-05T14:28:04;27.10;26.80
26254;DHT22;53339;51.378;0.094;2022-08-05T14:30:31;26.60;26.80
26254;DHT22;53339;51.378;0.094;2022-08-05T14:32:59;26.20;27.20
26254;DHT22;53339;51.378;0.094;2022-08-05T14:35:26;26.10;27.50
26254;DHT22;53339;51.378;0.094;2022-08-05T14:38:02;26.20;27.10
26254;DHT22;53339;51.378;0.094;2022-08-05T14:40:30;26.50;26.90
26254;DHT22;53339;51.378;0.094;2022-08-05T14:42:57;27.40;25.70
26254;DHT22;53339;51.378;0.094;2022-08-05T14:45:25;28.40;24.50
26254;DHT22;53339;51.378;0.094;2022-08-05T14:47:52;29.20;23.80
26254;DHT22;53339;51.378;0.094;2022-08-05T14:50:24;29.00;23.70
26254;DHT22;53339;51.378;0.094;2022-08-05T14:52:52;28.00;24.00
26254;DHT22;53339;51.378;0.094;2022-08-05T14:55:23;27.00;25.30
26254;DHT22;53339;51.378;0.094;2022-08-05T14:57:51;27.00;25.90
26254;DHT22;53339;51.378;0.094;2022-08-05T15:00:21;26.70;25.40
26254;DHT22;53339;51.378;0.094;2022-08-05T15:02:48;26.10;26.10
26254;DHT22;53339;51.378;0.094;2022-08-05T15:05:16;25.60;26.80
26254;DHT22;53339;51.378;0.094;2022-08-05T15:07:44;25.10;27.30
26254;DHT22;53339;51.378;0.094;2022-08-05T15:10:31;24.80;27.70
26254;DHT22;53339;51.378;0.094;2022-08-05T15:12:58;24.60;27.60
26254;DHT22;53339;51.378;0.094;2022-08-05T15:15:29;24.20;28.20
26254;DHT22;53339;51.378;0.094;2022-08-05T15:18:17;24.20;28.60
26254;DHT22;53339;51.378;0.094;2022-08-05T15:20:45;24.10;28.60
26254;DHT22;53339;51.378;0.094;2022-08-05T15:23:12;24.00;28.60
26254;DHT22;53339;51.378;0.094;2022-08-05T15:25:40;23.80;28.70
26254;DHT22;53339;51.378;0.094;2022-08-05T15:28:20;23.50;28.80
26254;DHT22;53339;51.378;0.094;2022-08-05T15:30:54;23.20;28.90
26254;DHT22;53339;51.378;0.094;2022-08-05T15:33:21;24.00;28.50
26254;DHT22;53339;51.378;0.094;2022-08-05T15:36:09;25.10;26.90
26254;DHT22;53339;51.378;0.094;2022-08-05T15:38:44;26.10;25.70
26254;DHT22;53339;51.378;0.094;2022-08-05T15:41:12;27.00;24.10
26254;DHT22;53339;51.378;0.094;2022-08-05T15:43:51;27.90;23.00
26254;DHT22;53339;51.378;0.094;2022-08-05T15:46:21;28.60;22.50
26254;DHT22;53339;51.378;0.094;2022-08-05T15:48:51;29.30;22.80
26254;DHT22;53339;51.378;0.094;2022-08-05T15:51:26;30.20;22.00
26254;DHT22;53339;51.378;0.094;2022-08-05T15:54:14;30.40;21.90
26254;DHT22;53339;51.378;0.094;2022-08-05T15:56:41;30.90;21.50
26254;DHT22;53339;51.378;0.094;2022-08-05T15:59:10;31.20;21.30
26254;DHT22;53339;51.378;0.094;2022-08-05T16:01:46;30.90;21.80
26254;DHT22;53339;51.378;0.094;2022-08-05T16:04:20;30.50;21.60
26254;DHT22;53339;51.378;0.094;2022-08-05T16:06:55;30.10;21.80
26254;DHT22;53339;51.378;0.094;2022-08-05T16:09:23;29.30;22.40
26254;DHT22;53339;51.378;0.094;2022-08-05T16:11:52;28.30;23.00
26254;DHT22;53339;51.378;0.094;2022-08-05T16:14:21;27.40;23.70
26254;DHT22;53339;51.378;0.094;2022-08-05T16:16:49;26.60;24.40
26254;DHT22;53339;51.378;0.094;2022-08-05T16:19:16;26.00;25.00
26254;DHT22;53339;51.378;0.094;2022-08-05T16:21:45;25.40;25.80
26254;DHT22;53339;51.378;0.094;2022-08-05T16:24:25;25.10;26.30
26254;DHT22;53339;51.378;0.094;2022-08-05T16:27:08;24.60;26.50
26254;DHT22;53339;51.378;0.094;2022-08-05T16:29:36;24.30;26.70
26254;DHT22;53339;51.378;0.094;2022-08-05T16:32:04;24.10;26.90
26254;DHT22;53339;51.378;0.094;2022-08-05T16:34:32;23.90;27.10
26254;DHT22;53339;51.378;0.094;2022-08-05T16:37:00;23.70;27.30
26254;DHT22;53339;51.378;0.094;2022-08-05T16:39:27;23.70;27.40
26254;DHT22;53339;51.378;0.094;2022-08-05T16:42:15;23.70;27.50
26254;DHT22;53339;51.378;0.094;2022-08-05T16:44:46;23.60;27.60
26254;DHT22;53339;51.378;0.094;2022-08-05T16:47:20;23.40;27.70
26254;DHT22;53339;51.378;0.094;2022-08-05T16:49:51;23.20;28.00
26254;DHT22;53339;51.378;0.094;2022-08-05T16:52:19;23.00;28.20
26254;DHT22;53339;51.378;0.094;2022-08-05T16:54:47;22.80;28.70
26254;DHT22;53339;51.378;0.094;2022-08-05T16:57:15;22.70;28.90
26254;DHT22;53339;51.378;0.094;2022-08-05T16:59:51;22.70;29.00
26254;DHT22;53339;51.378;0.094;2022-08-05T17:02:29;22.40;29.10
26254;DHT22;53339;51.378;0.094;2022-08-05T17:04:56;22.20;29.30